Time;durP1;ratioP1;P1;durP2;ratioP2;P2;SDS_P1;SDS_P2;PMS_P1;PMS_P2;Temp;Humidity;BMP_temperature;BMP_pressure;BME280_temperature;BME280_humidity;BME280_pressure;Samples;Min_cycle;Max_cycle;Signal;HPM_P1;HPM_P2
2023/02/05 00:00:56;;;;;;;20.40;8.70;;;;;;;-3.94;72.79;98598.56;108654;1252;95724;-75
2023/02/05 00:03:43;;;;;;;17.20;7.50;;;;;;;-3.94;72.70;98599.95;108835;1251;96030;-75
2023/02/05 00:06:11;;;;;;;11.50;7.10;;;;;;;-3.95;72.86;98600.38;108827;1251;103728;-74
2023/02/05 00:08:39;;;;;;;15.50;6.60;;;;;;;-3.96;72.66;98599.17;108828;1251;101018;-73
2023/02/05 00:11:09;;;;;;;13.20;7.30;;;;;;;-3.96;72.47;98604.48;108825;1251;99509;-75
2023/02/05 00:13:42;;;;;;;13.40;6.70;;;;;;;-3.92;72.82;98608.25;108808;1251;95675;-75
2023/02/05 00:16:13;;;;;;;8.80;5.70;;;;;;;-3.95;72.82;98605.10;108836;1251;95668;-74
2023/02/05 00:18:42;;;;;;;9.90;6.20;;;;;;;-4.04;72.80;98607.01;108869;1251;103554;-73
2023/02/05 00:21:10;;;;;;;12.70;6.80;;;;;;;-4.06;73.02;98612.27;108870;1251;101364;-74
2023/02/05 00:23:39;;;;;;;14.50;6.50;;;;;;;-4.09;72.98;98612.39;108792;1251;108758;-74
2023/02/05 00:26:09;;;;;;;14.00;5.50;;;;;;;-4.07;72.80;98619.16;108825;1251;95567;-75
2023/02/05 00:28:38;;;;;;;20.70;10.00;;;;;;;-4.04;72.77;98618.13;108888;1251;97022;-74
2023/02/05 00:31:15;;;;;;;12.40;5.90;;;;;;;-4.05;72.46;98623.42;108804;1251;103427;-74
2023/02/05 00:33:44;;;;;;;10.00;5.40;;;;;;;-4.09;72.10;98625.97;108872;1251;110103;-74
2023/02/05 00:36:12;;;;;;;14.80;6.70;;;;;;;-4.12;72.10;98629.17;108832;1251;99659;-75
2023/02/05 00:38:42;;;;;;;12.20;6.00;;;;;;;-4.12;72.12;98632.82;108771;1251;95563;-75
2023/02/05 00:41:12;;;;;;;15.90;7.30;;;;;;;-4.12;72.12;98632.50;108840;1251;96054;-73
2023/02/05 00:43:41;;;;;;;8.10;4.90;;;;;;;-4.11;72.03;98634.73;108837;1251;103505;-74
2023/02/05 00:46:11;;;;;;;9.60;5.60;;;;;;;-4.09;71.93;98634.77;108914;1251;101738;-74
2023/02/05 00:48:39;;;;;;;9.80;6.10;;;;;;;-4.11;71.90;98632.41;108791;1251;98430;-75
2023/02/05 00:51:07;;;;;;;11.60;6.20;;;;;;;-4.16;72.00;98632.75;108795;1251;95561;-74
2023/02/05 00:53:36;;;;;;;9.10;5.60;;;;;;;-4.18;72.03;98633.55;108832;1251;96057;-74
2023/02/05 00:56:04;;;;;;;10.30;6.60;;;;;;;-4.17;72.29;98634.19;108822;1251;103406;-75
2023/02/05 00:58:32;;;;;;;11.60;6.60;;;;;;;-4.15;72.41;98631.77;108835;1251;101383;-74
2023/02/05 01:01:00;;;;;;;14.20;7.90;;;;;;;-4.12;72.55;98635.13;108816;1251;99914;-74
2023/02/05 01:03:28;;;;;;;11.20;6.40;;;;;;;-4.11;72.66;98635.27;108847;1251;95584;-74
2023/02/05 01:05:57;;;;;;;12.60;6.60;;;;;;;-4.09;72.83;98634.78;108854;1251;96290;-75
2023/02/05 01:08:25;;;;;;;10.30;5.80;;;;;;;-4.05;72.79;98631.54;108837;1251;103489;-74
2023/02/05 01:10:53;;;;;;;9.60;5.90;;;;;;;-3.98;72.77;98633.08;108870;1251;101125;-75
2023/02/05 01:13:21;;;;;;;11.90;6.70;;;;;;;-3.93;72.81;98634.02;108647;1251;99859;-74
2023/02/05 01:15:49;;;;;;;15.70;7.70;;;;;;;-3.92;72.83;98637.83;108821;1251;95529;-75
2023/02/05 01:18:17;;;;;;;10.40;6.10;;;;;;;-3.97;72.91;98637.61;108833;1251;96003;-75
2023/02/05 01:20:45;;;;;;;11.80;6.30;;;;;;;-4.08;72.40;98636.67;108858;1251;102583;-73
2023/02/05 01:23:13;;;;;;;12.70;6.00;;;;;;;-4.11;72.03;98635.95;108917;1250;101147;-74
2023/02/05 01:25:41;;;;;;;9.40;5.70;;;;;;;-4.12;72.04;98634.27;108735;1251;100345;-74
2023/02/05 01:28:10;;;;;;;9.40;5.60;;;;;;;-4.23;71.84;98634.39;108823;1251;95611;-75
2023/02/05 01:30:38;;;;;;;9.80;5.80;;;;;;;-4.31;71.96;98637.65;108854;1251;96120;-74
2023/02/05 01:33:06;;;;;;;9.90;6.00;;;;;;;-4.31;72.38;98636.23;108837;1251;103518;-74
2023/02/05 01:35:34;;;;;;;11.70;6.10;;;;;;;-4.27;72.52;98632.31;108858;1251;100311;-74
2023/02/05 01:38:02;;;;;;;8.90;6.00;;;;;;;-4.26;72.38;98631.91;108774;1251;99438;-74
2023/02/05 01:40:30;;;;;;;11.70;6.40;;;;;;;-4.32;72.34;98631.92;108816;1251;95595;-74
2023/02/05 01:42:58;;;;;;;9.60;5.50;;;;;;;-4.38;72.25;98635.25;108804;1252;96099;-73
2023/02/05 01:45:49;;;;;;;10.60;5.30;;;;;;;-4.43;72.35;98636.61;108870;1250;103594;-76
2023/02/05 01:48:22;;;;;;;10.40;6.00;;;;;;;-4.46;72.52;98640.10;108841;1251;101524;-73
2023/02/05 01:51:04;;;;;;;10.30;6.10;;;;;;;-4.47;72.52;98639.66;108869;1251;99505;-74
2023/02/05 01:53:36;;;;;;;13.20;6.70;;;;;;;-4.49;72.61;98636.28;108819;1251;95554;-76
2023/02/05 01:56:04;;;;;;;10.60;6.60;;;;;;;-4.51;72.70;98638.12;108800;1253;95648;-75
2023/02/05 01:58:37;;;;;;;13.10;6.40;;;;;;;-4.53;72.57;98632.09;108650;1251;103705;-74
2023/02/05 02:01:06;;;;;;;9.00;6.30;;;;;;;-4.54;72.72;98629.31;108841;1251;101139;-74
2023/02/05 02:03:34;;;;;;;11.30;5.90;;;;;;;-4.53;72.87;98627.14;108816;1251;99267;-73
2023/02/05 02:06:03;;;;;;;11.80;7.10;;;;;;;-4.54;72.77;98628.96;108753;1251;95733;-73
2023/02/05 02:08:32;;;;;;;11.30;5.90;;;;;;;-4.56;72.88;98631.40;108887;1251;96121;-74
2023/02/05 02:11:04;;;;;;;8.00;4.90;;;;;;;-4.62;72.73;98630.31;108850;1250;103790;-73
2023/02/05 02:13:35;;;;;;;8.10;5.10;;;;;;;-4.64;72.82;98633.07;108732;1253;101037;-75
2023/02/05 02:16:05;;;;;;;10.50;4.80;;;;;;;-4.64;72.72;98636.10;108620;1254;100533;-74
2023/02/05 02:18:36;;;;;;;12.40;6.20;;;;;;;-4.63;72.81;98632.70;108813;1251;96017;-74
2023/02/05 02:21:25;;;;;;;8.90;5.80;;;;;;;-4.59;72.92;98636.32;108659;1252;95793;-76
2023/02/05 02:24:19;;;;;;;10.90;6.00;;;;;;;-4.56;73.13;98638.41;108657;1251;102659;-73
2023/02/05 02:27:15;;;;;;;10.00;6.10;;;;;;;-4.51;73.35;98639.38;108641;1254;101346;-75
2023/02/05 02:30:09;;;;;;;9.60;6.10;;;;;;;-4.46;73.47;98647.66;108821;1251;99809;-73
2023/02/05 02:32:45;;;;;;;12.30;6.60;;;;;;;-4.44;73.53;98655.64;108808;1251;95726;-75
2023/02/05 02:35:25;;;;;;;8.20;5.30;;;;;;;-4.45;73.47;98654.99;108842;1251;96062;-75
2023/02/05 02:38:11;;;;;;;9.50;5.40;;;;;;;-4.47;73.19;98653.52;108882;1251;102178;-74
2023/02/05 02:40:48;;;;;;;10.30;5.80;;;;;;;-4.47;73.36;98652.81;108886;1251;101521;-74
2023/02/05 02:43:19;;;;;;;10.40;6.40;;;;;;;-4.42;73.64;98653.73;108535;1251;100099;-74
2023/02/05 02:45:53;;;;;;;9.40;5.90;;;;;;;-4.35;73.74;98655.10;108812;1251;95979;-75
2023/02/05 02:48:25;;;;;;;12.40;6.80;;;;;;;-4.28;73.73;98660.15;108837;1251;96059;-74
2023/02/05 02:50:56;;;;;;;9.50;6.30;;;;;;;-4.23;73.94;98657.73;108919;1251;103862;-73
2023/02/05 02:53:29;;;;;;;10.60;6.10;;;;;;;-4.20;73.89;98654.20;108880;1251;101651;-73
2023/02/05 02:56:00;;;;;;;9.40;5.80;;;;;;;-4.25;73.59;98657.66;108847;1251;100237;-74
2023/02/05 02:58:35;;;;;;;12.50;7.00;;;;;;;-4.27;73.70;98660.79;108851;1251;95530;-74
2023/02/05 03:01:07;;;;;;;10.90;6.40;;;;;;;-4.24;73.91;98658.86;108887;1251;95958;-74
2023/02/05 03:03:41;;;;;;;16.00;7.70;;;;;;;-4.18;74.12;98657.13;108904;1251;103340;-74
2023/02/05 03:06:12;;;;;;;10.60;6.60;;;;;;;-4.14;74.03;98657.21;108873;1250;101364;-74
2023/02/05 03:08:50;;;;;;;14.60;7.70;;;;;;;-4.11;74.21;98659.48;108832;1251;99450;-75
2023/02/05 03:11:19;;;;;;;11.60;6.70;;;;;;;-4.09;74.15;98661.29;108825;1251;95818;-75
2023/02/05 03:13:48;;;;;;;12.30;7.40;;;;;;;-4.10;74.13;98664.17;108887;1251;96152;-73
2023/02/05 03:16:17;;;;;;;9.90;6.90;;;;;;;-4.07;74.15;98667.01;108636;1251;102456;-74
2023/02/05 03:18:46;;;;;;;12.50;6.40;;;;;;;-4.05;74.13;98668.27;108854;1250;101499;-73
2023/02/05 03:21:42;;;;;;;12.50;6.40;;;;;;;-4.05;74.18;98671.77;108878;1251;100043;-73
2023/02/05 03:24:11;;;;;;;9.80;6.30;;;;;;;-4.05;74.17;98673.41;108268;1259;95653;-74
2023/02/05 03:26:40;;;;;;;9.80;5.50;;;;;;;-4.05;74.42;98674.24;108280;1258;96143;-74
2023/02/05 03:29:12;;;;;;;9.60;5.90;;;;;;;-4.05;74.20;98668.44;108169;1259;103476;-75
2023/02/05 03:31:40;;;;;;;9.00;5.50;;;;;;;-4.06;74.25;98673.61;108287;1259;101417;-74
2023/02/05 03:34:17;;;;;;;10.60;6.30;;;;;;;-4.10;74.21;98676.27;108244;1259;99675;-73
2023/02/05 03:37:21;;;;;;;8.50;5.20;;;;;;;-4.17;74.18;98671.64;108261;1257;95857;-74
2023/02/05 03:40:03;;;;;;;8.70;5.10;;;;;;;-4.26;74.22;98669.35;108307;1258;96318;-76
2023/02/05 03:42:44;;;;;;;8.70;5.80;;;;;;;-4.33;74.23;98667.07;108295;1258;104093;-73
2023/02/05 03:45:24;;;;;;;12.20;6.50;;;;;;;-4.35;74.38;98668.65;108305;1258;101424;-74
2023/02/05 03:48:04;;;;;;;10.40;5.70;;;;;;;-4.35;74.45;98670.58;108251;1259;99840;-74
2023/02/05 03:51:01;;;;;;;10.40;6.40;;;;;;;-4.26;75.14;98662.66;108235;1259;95738;-76
2023/02/05 03:53:41;;;;;;;14.10;7.20;;;;;;;-4.13;75.27;98662.40;108305;1258;96241;-74
2023/02/05 03:56:16;;;;;;;10.00;6.80;;;;;;;-4.08;75.05;98669.35;108269;1258;103495;-73
2023/02/05 03:58:48;;;;;;;9.80;5.70;;;;;;;-4.13;74.78;98663.85;108000;1260;102431;-75
2023/02/05 04:01:18;;;;;;;12.40;6.50;;;;;;;-4.13;74.77;98665.08;108506;1251;100018;-74
2023/02/05 04:03:47;;;;;;;12.60;7.00;;;;;;;-4.13;74.64;98661.89;108833;1251;95587;-74
2023/02/05 04:06:15;;;;;;;10.90;7.00;;;;;;;-4.11;74.72;98667.38;108888;1251;97097;-74
2023/02/05 04:08:43;;;;;;;10.60;6.80;;;;;;;-4.09;74.75;98666.95;108869;1250;102985;-74
2023/02/05 04:11:12;;;;;;;10.20;6.20;;;;;;;-4.10;74.68;98667.70;108877;1251;101579;-74
2023/02/05 04:13:40;;;;;;;10.40;5.80;;;;;;;-4.18;74.48;98667.64;108833;1251;100319;-76
2023/02/05 04:16:08;;;;;;;9.90;5.60;;;;;;;-4.28;74.41;98664.57;108835;1253;96019;-75
2023/02/05 04:18:36;;;;;;;6.60;4.90;;;;;;;-4.37;74.50;98658.55;108718;1251;96110;-74
2023/02/05 04:21:05;;;;;;;8.80;5.60;;;;;;;-4.41;74.41;98659.69;108662;1250;103833;-74
2023/02/05 04:23:33;;;;;;;9.10;5.70;;;;;;;-4.43;74.42;98662.27;108404;1251;100178;-74
2023/02/05 04:26:01;;;;;;;9.00;5.50;;;;;;;-4.42;74.57;98661.32;108824;1251;100331;-75
2023/02/05 04:28:29;;;;;;;8.00;5.50;;;;;;;-4.40;74.64;98665.77;108813;1251;95603;-73
2023/02/05 04:30:57;;;;;;;10.00;6.00;;;;;;;-4.37;74.57;98669.65;108908;1251;96095;-74
2023/02/05 04:33:25;;;;;;;9.60;5.60;;;;;;;-4.46;74.40;98679.96;108833;1250;103650;-75
2023/02/05 04:35:58;;;;;;;11.70;6.30;;;;;;;-4.56;74.46;98682.14;108621;1254;101310;-75
2023/02/05 04:38:27;;;;;;;7.80;5.30;;;;;;;-4.57;74.52;98683.80;108850;1251;99856;-74
2023/02/05 04:40:55;;;;;;;7.80;5.20;;;;;;;-4.58;74.39;98683.48;108787;1251;95573;-74
2023/02/05 04:43:23;;;;;;;9.60;6.00;;;;;;;-4.62;74.26;98685.52;108823;1251;97133;-76
2023/02/05 04:45:52;;;;;;;9.50;5.90;;;;;;;-4.67;74.26;98687.36;108923;1251;103769;-75
2023/02/05 04:48:20;;;;;;;6.30;5.00;;;;;;;-4.73;74.29;98685.19;108667;1251;100519;-75
2023/02/05 04:50:48;;;;;;;8.00;5.80;;;;;;;-4.74;74.22;98683.66;108820;1251;100036;-74
2023/02/05 04:53:16;;;;;;;8.70;6.00;;;;;;;-4.74;74.18;98684.40;108607;1253;95618;-73
2023/02/05 04:55:44;;;;;;;13.00;6.10;;;;;;;-4.79;74.21;98685.52;108932;1251;97030;-74
2023/02/05 04:58:12;;;;;;;8.60;5.10;;;;;;;-4.81;74.24;98684.04;108893;1251;103272;-74
2023/02/05 05:00:40;;;;;;;11.40;5.90;;;;;;;-4.80;74.08;98683.48;108882;1251;101353;-73
2023/02/05 05:03:08;;;;;;;8.90;5.40;;;;;;;-4.80;73.82;98682.64;108819;1251;98960;-74
2023/02/05 05:05:36;;;;;;;6.90;5.00;;;;;;;-4.85;73.75;98692.77;108610;1251;95686;-74
2023/02/05 05:08:05;;;;;;;8.50;4.70;;;;;;;-4.89;73.36;98692.10;108863;1251;95942;-74
2023/02/05 05:10:33;;;;;;;7.20;4.70;;;;;;;-4.96;73.25;98694.23;108869;1251;103605;-74
2023/02/05 05:13:01;;;;;;;9.80;5.20;;;;;;;-5.00;73.31;98694.59;108856;1251;100362;-74
2023/02/05 05:15:29;;;;;;;6.50;5.50;;;;;;;-5.01;73.35;98697.88;108823;1251;100140;-74
2023/02/05 05:17:57;;;;;;;8.50;5.30;;;;;;;-5.04;73.44;98698.70;108823;1251;95988;-75
2023/02/05 05:20:25;;;;;;;7.10;4.90;;;;;;;-5.04;73.53;98699.59;108901;1251;95690;-73
2023/02/05 05:22:53;;;;;;;10.50;4.90;;;;;;;-5.03;73.55;98698.48;108898;1251;102330;-74
2023/02/05 05:25:22;;;;;;;8.30;4.90;;;;;;;-4.99;73.52;98700.02;108908;1251;101642;-73
2023/02/05 05:27:50;;;;;;;9.20;5.10;;;;;;;-4.95;73.33;98699.79;108678;1251;99259;-75
2023/02/05 05:30:18;;;;;;;8.60;5.20;;;;;;;-4.93;73.34;98703.90;108818;1251;95616;-74
2023/02/05 05:32:46;;;;;;;6.40;4.80;;;;;;;-4.95;73.27;98706.14;108690;1253;96530;-75
2023/02/05 05:35:14;;;;;;;7.80;5.00;;;;;;;-4.99;73.27;98707.58;108877;1253;103468;-73
2023/02/05 05:37:42;;;;;;;8.30;5.10;;;;;;;-5.00;73.39;98712.70;108878;1250;101562;-74
2023/02/05 05:45:43;;;;;;;8.20;5.20;;;;;;;-4.97;73.31;98730.80;108864;1251;96067;-73
2023/02/05 05:48:11;;;;;;;8.50;4.90;;;;;;;-4.98;73.36;98734.38;108806;1250;103568;-76
2023/02/05 05:50:39;;;;;;;10.20;4.80;;;;;;;-5.00;73.25;98733.08;108620;1251;101498;-73
2023/02/05 05:53:07;;;;;;;8.00;5.20;;;;;;;-4.99;73.39;98738.98;108643;1251;99936;-74
2023/02/05 05:55:35;;;;;;;6.80;4.20;;;;;;;-4.97;73.51;98746.45;108804;1251;95558;-74
2023/02/05 05:58:03;;;;;;;7.60;4.50;;;;;;;-4.96;73.32;98751.49;108819;1251;95988;-75
2023/02/05 06:00:31;;;;;;;6.70;4.20;;;;;;;-4.95;73.25;98758.10;108854;1251;103753;-73
2023/02/05 06:02:59;;;;;;;8.20;4.70;;;;;;;-4.95;73.15;98761.06;108857;1250;101384;-74
2023/02/05 06:05:28;;;;;;;7.80;5.00;;;;;;;-4.94;73.11;98764.30;108850;1251;99543;-76
2023/02/05 06:07:56;;;;;;;7.50;4.50;;;;;;;-4.93;73.10;98766.38;108830;1251;95564;-74
2023/02/05 06:10:25;;;;;;;5.00;3.80;;;;;;;-4.96;73.07;98774.27;108899;1251;96150;-74
2023/02/05 06:12:54;;;;;;;6.30;4.40;;;;;;;-4.98;72.90;98775.30;108890;1250;103683;-74
2023/02/05 06:15:22;;;;;;;6.90;4.70;;;;;;;-5.01;72.75;98781.59;108606;1253;100416;-75
2023/02/05 06:17:50;;;;;;;8.90;5.80;;;;;;;-5.02;72.78;98779.89;108824;1251;100007;-75
2023/02/05 06:20:19;;;;;;;7.30;4.80;;;;;;;-5.03;72.90;98778.51;108772;1251;95651;-72
2023/02/05 06:22:47;;;;;;;9.10;5.20;;;;;;;-5.08;72.73;98778.11;108837;1251;96455;-73
2023/02/05 06:25:15;;;;;;;10.80;5.30;;;;;;;-5.18;72.85;98775.64;108699;1251;103715;-74
2023/02/05 06:27:43;;;;;;;8.40;4.90;;;;;;;-5.22;72.87;98781.09;108860;1251;101423;-73
2023/02/05 06:30:12;;;;;;;7.50;5.10;;;;;;;-5.24;72.87;98787.17;108792;1252;100149;-74
2023/02/05 06:32:40;;;;;;;7.90;4.80;;;;;;;-5.31;72.77;98789.98;108576;1252;95605;-74
2023/02/05 06:35:09;;;;;;;6.60;4.50;;;;;;;-5.38;72.87;98797.73;108875;1251;96977;-74
2023/02/05 06:37:37;;;;;;;12.20;6.30;;;;;;;-5.42;72.98;98798.14;108922;1251;103956;-74
2023/02/05 06:40:05;;;;;;;7.00;4.60;;;;;;;-5.41;72.87;98804.02;108859;1251;101326;-73
2023/02/05 06:42:33;;;;;;;8.00;5.00;;;;;;;-5.39;73.01;98812.55;108874;1251;100021;-74
2023/02/05 06:45:01;;;;;;;6.80;4.60;;;;;;;-5.42;73.11;98815.30;108830;1251;95767;-73
2023/02/05 06:47:30;;;;;;;8.90;4.70;;;;;;;-5.45;73.08;98816.49;108809;1251;97125;-75
2023/02/05 06:49:58;;;;;;;8.20;5.40;;;;;;;-5.43;73.25;98817.27;108846;1252;103490;-73
2023/02/05 06:52:26;;;;;;;9.70;5.70;;;;;;;-5.36;73.44;98820.30;108652;1252;101412;-75
2023/02/05 06:54:54;;;;;;;7.20;5.10;;;;;;;-5.31;73.47;98821.58;108850;1251;99944;-74
2023/02/05 06:57:22;;;;;;;6.50;4.50;;;;;;;-5.30;73.34;98831.73;108821;1251;95547;-74
2023/02/05 06:59:50;;;;;;;7.80;5.00;;;;;;;-5.34;73.28;98835.44;108903;1251;96146;-74
2023/02/05 07:02:18;;;;;;;7.10;5.00;;;;;;;-5.35;73.44;98834.61;108869;1251;103358;-74
2023/02/05 07:04:46;;;;;;;7.20;4.50;;;;;;;-5.34;73.34;98838.40;108913;1251;101332;-74
2023/02/05 07:07:16;;;;;;;7.70;5.40;;;;;;;-5.34;73.40;98837.02;108571;1252;99981;-75
2023/02/05 07:09:44;;;;;;;7.60;4.50;;;;;;;-5.37;73.26;98832.95;108836;1251;95556;-75
2023/02/05 07:12:12;;;;;;;6.50;4.60;;;;;;;-5.39;73.29;98835.85;108852;1251;96003;-73
2023/02/05 07:14:42;;;;;;;12.40;7.50;;;;;;;-5.38;73.42;98834.05;108672;1250;103599;-73
2023/02/05 07:17:10;;;;;;;15.30;8.70;;;;;;;-5.36;73.37;98840.27;108928;1250;101626;-75
2023/02/05 07:19:38;;;;;;;10.30;7.00;;;;;;;-5.33;73.54;98836.78;108771;1251;99963;-74
2023/02/05 07:22:06;;;;;;;11.50;6.70;;;;;;;-5.28;73.47;98842.86;108873;1251;95565;-74
2023/02/05 07:24:34;;;;;;;9.90;5.60;;;;;;;-5.26;73.51;98842.04;108878;1251;96009;-74
2023/02/05 07:27:02;;;;;;;8.80;5.30;;;;;;;-5.26;73.40;98842.06;108830;1250;103336;-74
2023/02/05 07:29:30;;;;;;;9.50;5.60;;;;;;;-5.26;73.27;98840.13;108863;1250;101349;-73
2023/02/05 07:31:58;;;;;;;9.70;6.20;;;;;;;-5.23;73.56;98846.79;108854;1251;99594;-74
2023/02/05 07:34:26;;;;;;;10.40;5.60;;;;;;;-5.19;73.56;98857.11;108874;1251;95785;-74
2023/02/05 07:36:54;;;;;;;10.80;6.40;;;;;;;-5.17;73.30;98865.24;108916;1251;96020;-74
2023/02/05 07:39:22;;;;;;;8.70;5.20;;;;;;;-5.18;73.19;98868.62;108930;1251;103714;-74
2023/02/05 07:41:52;;;;;;;9.40;5.50;;;;;;;-5.21;73.21;98868.83;108850;1251;100491;-74
2023/02/05 07:44:21;;;;;;;6.30;4.50;;;;;;;-5.22;73.20;98876.79;108634;1251;195852;-74
2023/02/05 07:46:49;;;;;;;9.70;6.20;;;;;;;-5.26;73.24;98888.73;108865;1251;95527;-73
2023/02/05 07:49:17;;;;;;;6.90;4.70;;;;;;;-5.29;72.99;98892.37;108668;1251;96107;-74
2023/02/05 07:51:46;;;;;;;7.40;5.00;;;;;;;-5.32;73.02;98896.91;108858;1250;103354;-74
2023/02/05 07:54:14;;;;;;;17.00;9.00;;;;;;;-5.32;73.08;98898.19;108841;1251;101265;-73
2023/02/05 07:56:43;;;;;;;11.30;7.20;;;;;;;-5.32;73.15;98897.63;108827;1251;99970;-73
2023/02/05 07:59:11;;;;;;;10.00;6.60;;;;;;;-5.28;73.30;98898.14;108853;1251;95575;-74
2023/02/05 08:01:39;;;;;;;14.90;8.10;;;;;;;-5.24;73.27;98897.92;108860;1251;95990;-75
2023/02/05 08:04:07;;;;;;;14.80;8.70;;;;;;;-5.28;73.55;98894.77;108838;1251;103428;-74
2023/02/05 08:06:35;;;;;;;17.30;9.30;;;;;;;-5.23;73.56;98896.30;108845;1251;99988;-74
2023/02/05 08:09:03;;;;;;;18.30;10.20;;;;;;;-5.16;73.61;98900.66;108879;1251;100003;-74
2023/02/05 08:11:32;;;;;;;17.30;9.90;;;;;;;-5.10;73.55;98904.23;108849;1251;95594;-74
2023/02/05 08:14:01;;;;;;;14.60;8.50;;;;;;;-5.05;73.40;98903.45;108860;1251;96311;-73
2023/02/05 08:16:29;;;;;;;16.40;8.40;;;;;;;-4.99;73.51;98906.31;108916;1251;103764;-74
2023/02/05 08:18:57;;;;;;;15.90;8.50;;;;;;;-4.93;73.41;98902.80;108798;1251;101236;-73
2023/02/05 08:21:25;;;;;;;16.30;9.70;;;;;;;-4.86;73.40;98900.20;108807;1251;99900;-74
2023/02/05 08:23:56;;;;;;;19.60;10.10;;;;;;;-4.80;73.42;98902.63;108403;1252;95984;-75
2023/02/05 08:26:24;;;;;;;21.00;9.60;;;;;;;-4.76;73.39;98901.39;108854;1251;96449;-74
2023/02/05 08:28:52;;;;;;;21.70;8.90;;;;;;;-4.75;73.11;98903.27;108878;1250;102236;-73
2023/02/05 08:31:20;;;;;;;14.70;7.80;;;;;;;-4.82;72.94;98904.88;108836;1251;101288;-73
2023/02/05 08:33:49;;;;;;;15.10;8.30;;;;;;;-4.87;72.92;98899.34;108846;1251;100409;-74
2023/02/05 08:36:17;;;;;;;12.70;7.30;;;;;;;-4.87;72.92;98899.16;108780;1251;95608;-73
2023/02/05 08:38:45;;;;;;;16.60;7.70;;;;;;;-4.80;73.07;98904.08;108845;1251;97095;-75
2023/02/05 08:41:14;;;;;;;15.40;7.90;;;;;;;-4.75;72.99;98905.02;108833;1251;103442;-74
2023/02/05 08:43:44;;;;;;;13.20;6.70;;;;;;;-4.71;72.97;98907.98;108868;1250;101276;-74
2023/02/05 08:46:14;;;;;;;18.50;8.50;;;;;;;-4.75;72.89;98905.70;108702;1251;99556;-75
2023/02/05 08:48:42;;;;;;;15.00;8.30;;;;;;;-4.76;72.88;98905.08;108526;1252;95614;-75
2023/02/05 08:51:12;;;;;;;17.70;9.80;;;;;;;-4.73;72.91;98909.66;108841;1251;95999;-73
2023/02/05 08:53:40;;;;;;;18.80;9.80;;;;;;;-4.72;72.75;98910.84;108844;1251;102114;-74
2023/02/05 08:56:10;;;;;;;17.30;9.00;;;;;;;-4.67;72.68;98912.73;108819;1251;99946;-73
2023/02/05 08:58:39;;;;;;;16.50;8.90;;;;;;;-4.69;72.47;98911.58;108857;1251;99743;-74
2023/02/05 09:01:15;;;;;;;14.10;7.00;;;;;;;-4.71;72.51;98911.11;108828;1251;95591;-74
2023/02/05 09:03:44;;;;;;;13.10;7.20;;;;;;;-4.74;72.14;98906.90;108878;1251;96013;-74
2023/02/05 09:06:15;;;;;;;13.80;6.60;;;;;;;-4.83;72.13;98897.55;108477;1251;103496;-73
2023/02/05 09:08:43;;;;;;;17.30;7.10;;;;;;;-4.84;72.30;98894.27;108703;1251;101040;-74
2023/02/05 09:11:12;;;;;;;13.00;7.30;;;;;;;-4.78;72.70;98898.31;108829;1251;98919;-74
2023/02/05 09:13:40;;;;;;;16.30;8.60;;;;;;;-4.73;72.76;98901.08;108644;1251;95646;-75
2023/02/05 09:16:11;;;;;;;17.30;8.50;;;;;;;-4.68;73.03;98902.73;108886;1251;96345;-74
2023/02/05 09:18:39;;;;;;;19.50;9.10;;;;;;;-4.64;72.99;98902.55;108862;1251;102393;-74
2023/02/05 09:21:09;;;;;;;16.90;8.80;;;;;;;-4.60;72.91;98904.80;108794;1250;101089;-75
2023/02/05 09:23:37;;;;;;;17.70;9.60;;;;;;;-4.58;72.90;98906.40;108861;1251;98701;-74
2023/02/05 09:26:07;;;;;;;19.20;9.80;;;;;;;-4.59;73.05;98913.32;108773;1251;95564;-73
2023/02/05 09:28:36;;;;;;;17.40;9.70;;;;;;;-4.54;73.28;98913.41;108839;1251;96223;-73
2023/02/05 09:31:08;;;;;;;18.00;9.20;;;;;;;-4.47;73.43;98912.52;108854;1251;102051;-74
2023/02/05 09:33:36;;;;;;;15.60;8.80;;;;;;;-4.41;73.26;98916.58;108768;1251;100289;-75
2023/02/05 09:36:09;;;;;;;12.50;7.50;;;;;;;-4.34;73.26;98915.83;108559;1252;99596;-75
2023/02/05 09:38:37;;;;;;;11.30;6.80;;;;;;;-4.29;73.25;98915.58;108837;1251;95630;-74
2023/02/05 09:41:14;;;;;;;12.80;6.80;;;;;;;-4.25;72.96;98910.80;108890;1251;96059;-74
2023/02/05 09:43:51;;;;;;;14.30;7.80;;;;;;;-4.21;72.86;98912.67;108681;1252;103114;-74
2023/02/05 09:46:19;;;;;;;13.00;7.60;;;;;;;-4.16;72.93;98914.37;108866;1251;101336;-74
2023/02/05 09:49:26;;;;;;;13.00;7.90;;;;;;;-4.13;72.71;98919.64;108807;1251;99009;-74
2023/02/05 09:52:02;;;;;;;18.50;9.30;;;;;;;-4.10;72.74;98922.77;108826;1251;95510;-74
2023/02/05 09:54:42;;;;;;;19.10;9.40;;;;;;;-4.07;72.76;98925.64;108806;1251;96488;-74
2023/02/05 09:57:18;;;;;;;18.70;9.10;;;;;;;-4.12;72.54;98923.27;108506;1256;103782;-74
2023/02/05 09:59:47;;;;;;;17.30;9.70;;;;;;;-4.23;72.45;98924.59;108856;1250;101332;-74
2023/02/05 10:02:27;;;;;;;15.40;7.50;;;;;;;-4.25;72.54;98927.70;108838;1251;99949;-75
2023/02/05 10:04:56;;;;;;;16.40;8.40;;;;;;;-4.24;72.53;98929.02;108791;1251;95613;-74
2023/02/05 10:07:33;;;;;;;29.20;13.50;;;;;;;-4.22;72.45;98929.29;108837;1251;96016;-74
2023/02/05 10:10:28;;;;;;;18.80;10.20;;;;;;;-4.22;72.41;98929.09;108918;1251;103492;-74
2023/02/05 10:13:34;;;;;;;17.60;9.60;;;;;;;-4.25;72.28;98922.60;108836;1252;100050;-74
2023/02/05 10:16:41;;;;;;;17.30;9.10;;;;;;;-4.33;72.21;98923.55;108169;1259;97665;-73
2023/02/05 10:19:38;;;;;;;12.30;7.20;;;;;;;-4.47;72.20;98926.92;107780;1266;95666;-74
2023/02/05 10:22:25;;;;;;;14.70;8.20;;;;;;;-4.58;72.19;98924.35;107787;1265;96144;-74
2023/02/05 10:25:06;;;;;;;15.10;7.90;;;;;;;-4.69;72.20;98923.86;107858;1265;104029;-73
2023/02/05 10:27:47;;;;;;;18.50;8.40;;;;;;;-4.83;72.18;98921.63;107887;1265;100351;-74
2023/02/05 10:30:41;;;;;;;20.00;9.30;;;;;;;-4.89;72.36;98919.64;107525;1265;99086;-75
2023/02/05 10:33:19;;;;;;;21.10;10.40;;;;;;;-4.88;72.50;98915.74;107796;1265;95683;-75
2023/02/05 10:35:59;;;;;;;13.40;7.40;;;;;;;-4.79;72.82;98918.61;107823;1267;96559;-75
2023/02/05 10:38:32;;;;;;;12.90;7.10;;;;;;;-4.69;72.94;98918.77;107808;1267;102438;-74
2023/02/05 10:41:39;;;;;;;15.30;8.40;;;;;;;-4.59;72.82;98926.00;107778;1267;101059;-74
2023/02/05 10:44:29;;;;;;;18.70;9.60;;;;;;;-4.64;72.51;98921.86;107784;1267;99977;-75
2023/02/05 10:47:06;;;;;;;16.60;9.10;;;;;;;-4.67;72.52;98922.36;107786;1265;96020;-73
2023/02/05 10:49:53;;;;;;;13.80;8.50;;;;;;;-4.68;72.32;98916.81;107810;1267;96219;-73
2023/02/05 10:52:21;;;;;;;15.20;8.30;;;;;;;-4.68;72.27;98922.44;107868;1259;103719;-74
2023/02/05 10:54:49;;;;;;;15.60;8.40;;;;;;;-4.73;71.85;98922.13;108057;1259;100040;-75
2023/02/05 10:57:20;;;;;;;13.90;7.80;;;;;;;-4.79;72.05;98919.45;108522;1252;108236;-74
2023/02/05 11:00:02;;;;;;;16.50;8.90;;;;;;;-4.78;72.23;98920.80;108741;1252;95618;-75
2023/02/05 11:02:38;;;;;;;19.00;10.60;;;;;;;-4.69;72.47;98922.48;108838;1251;95998;-73
2023/02/05 11:05:14;;;;;;;19.00;10.30;;;;;;;-4.66;72.19;98920.71;108871;1251;103450;-73
2023/02/05 11:07:48;;;;;;;17.90;10.20;;;;;;;-4.67;72.11;98920.96;108837;1251;101630;-74
2023/02/05 11:10:28;;;;;;;18.00;9.60;;;;;;;-4.62;72.07;98923.70;108848;1251;100019;-74
2023/02/05 11:12:58;;;;;;;20.10;10.60;;;;;;;-4.62;71.87;98922.10;108806;1251;95653;-74
2023/02/05 11:15:29;;;;;;;17.00;9.40;;;;;;;-4.62;71.63;98920.55;108865;1251;96056;-74
2023/02/05 11:18:05;;;;;;;16.90;8.50;;;;;;;-4.57;71.85;98924.98;108843;1251;103585;-74
2023/02/05 11:20:36;;;;;;;18.40;10.90;;;;;;;-4.58;71.59;98923.67;108896;1250;100847;-74
2023/02/05 11:23:25;;;;;;;23.30;11.30;;;;;;;-4.64;71.47;98923.44;108866;1251;99959;-73
2023/02/05 11:25:57;;;;;;;19.70;11.10;;;;;;;-4.61;71.63;98923.45;108905;1251;95537;-74
2023/02/05 11:28:30;;;;;;;16.20;9.40;;;;;;;-4.57;71.80;98923.77;108804;1251;96025;-74
2023/02/05 11:31:18;;;;;;;16.20;8.70;;;;;;;-4.54;71.61;98921.16;108772;1251;103602;-73
2023/02/05 11:33:47;;;;;;;15.30;8.90;;;;;;;-4.50;71.80;98918.85;108840;1251;101532;-73
2023/02/05 11:36:25;;;;;;;18.30;10.40;;;;;;;-4.51;71.51;98919.77;108649;1251;98490;-73
2023/02/05 11:38:56;;;;;;;21.90;11.90;;;;;;;-4.50;71.54;98916.71;108666;1258;95604;-73
2023/02/05 11:41:48;;;;;;;23.10;11.50;;;;;;;-4.50;71.56;98917.41;108943;1251;96041;-73
2023/02/05 11:44:34;;;;;;;21.60;12.10;;;;;;;-4.51;71.54;98917.86;108922;1250;103458;-74